Terminal Aerodrome Forecast
Issued by NWS Sioux Falls, SD

Home | Current Version | Previous Version | Graphics & Text | Print | Product List | Glossary Off
Versions: 1 2 3 4 5 6 7 8 9 10 11 12 13

000
FTUS43 KFSD 252355
TAFFSD
TAF
KFSD 252355Z 2600/2624 32011G18KT P6SM FEW070 SCT200
     FM260200 VRB03KT P6SM SCT070 SCT100
     FM261600 03007KT P6SM FEW250=

USA.gov is the U.S. government's official web portal to all federal, state and local government web resources and services.